createdAt,value
2019-02-23T00:02:59.163Z,99.60
2019-02-23T00:08:06.529Z,99.60
2019-02-23T00:13:13.666Z,99.60
2019-02-23T00:18:21.259Z,99.60
2019-02-23T00:23:28.773Z,99.60
2019-02-23T00:28:36.324Z,99.60
2019-02-23T00:33:43.643Z,99.60
2019-02-23T00:38:49.774Z,99.60
2019-02-23T00:43:57.328Z,99.60
2019-02-23T00:49:04.567Z,99.60
2019-02-23T00:54:12.539Z,99.60
2019-02-23T00:59:19.731Z,99.60
2019-02-23T01:04:27.265Z,99.60
2019-02-23T01:09:34.483Z,99.60
2019-02-23T01:14:41.816Z,99.60
2019-02-23T01:19:48.214Z,99.60
2019-02-23T01:24:54.098Z,99.60
2019-02-23T01:30:01.616Z,99.60
2019-02-23T01:35:07.935Z,99.60
2019-02-23T01:40:14.249Z,99.60
2019-02-23T01:45:21.573Z,99.60
2019-02-23T01:50:28.255Z,99.60
2019-02-23T01:55:34.598Z,99.60
2019-02-23T02:00:41.318Z,99.60
2019-02-23T02:05:48.017Z,99.60
2019-02-23T02:10:53.848Z,99.60
2019-02-23T02:16:00.427Z,99.60
2019-02-23T02:21:09.048Z,99.60
2019-02-23T02:26:16.142Z,99.60
2019-02-23T02:31:23.691Z,99.60
2019-02-23T02:36:31.144Z,99.60
2019-02-23T02:41:38.434Z,99.60
2019-02-23T02:46:46.652Z,99.60
2019-02-23T02:51:53.983Z,99.60
2019-02-23T02:57:01.104Z,99.60
2019-02-23T03:02:10.945Z,99.60
2019-02-23T03:07:18.221Z,99.60
2019-02-23T03:12:24.182Z,99.60
2019-02-23T03:17:29.963Z,99.60
2019-02-23T03:22:36.099Z,99.60
2019-02-23T03:27:43.460Z,99.60
2019-02-23T03:32:49.377Z,99.60
2019-02-23T03:37:55.233Z,99.60
2019-02-23T03:43:01.534Z,99.60
2019-02-23T03:48:27.326Z,99.60
2019-02-23T03:53:33.968Z,99.60
2019-02-23T03:58:41.330Z,99.60
2019-02-23T04:03:48.523Z,99.60
2019-02-23T04:08:56.501Z,99.60
2019-02-23T04:14:04.229Z,99.60
2019-02-23T04:19:11.215Z,99.60
2019-02-23T04:24:18.178Z,99.60
2019-02-23T04:29:25.401Z,99.60
2019-02-23T04:34:39.147Z,99.60
2019-02-23T04:39:46.459Z,99.60
2019-02-23T04:45:12.771Z,99.60
2019-02-23T04:50:20.627Z,99.60
2019-02-23T04:55:26.550Z,99.60
2019-02-23T05:00:34.115Z,99.60
2019-02-23T05:05:41.353Z,99.60
2019-02-23T05:10:47.878Z,99.60
2019-02-23T05:15:55.570Z,99.60
2019-02-23T05:21:01.693Z,99.60
2019-02-23T05:26:28.237Z,99.60
2019-02-23T05:31:35.646Z,99.60
2019-02-23T05:36:41.911Z,99.60
2019-02-23T05:41:49.672Z,99.60
2019-02-23T05:46:57.404Z,99.60
2019-02-23T05:52:04.450Z,99.60
2019-02-23T05:57:11.128Z,99.60
2019-02-23T06:02:19.618Z,99.60
2019-02-23T06:07:26.878Z,99.60
2019-02-23T06:12:34.164Z,99.60
2019-02-23T06:17:40.923Z,99.60
2019-02-23T06:22:50.527Z,99.60
2019-02-23T06:27:57.666Z,99.60
2019-02-23T06:33:05.383Z,99.60
2019-02-23T06:38:12.773Z,99.60
2019-02-23T06:43:20.277Z,99.60
2019-02-23T06:48:26.393Z,99.60
2019-02-23T06:53:33.291Z,99.60
2019-02-23T06:58:39.550Z,99.60
2019-02-23T07:03:45.595Z,99.60
2019-02-23T07:08:55.617Z,99.60
2019-02-23T07:14:01.707Z,99.60
2019-02-23T07:19:07.719Z,99.60
2019-02-23T07:24:13.730Z,99.60
2019-02-23T07:29:19.977Z,99.60
2019-02-23T07:34:26.368Z,99.60
2019-02-23T07:39:32.707Z,99.60
2019-02-23T07:44:38.603Z,99.60
2019-02-23T07:49:44.799Z,99.60
2019-02-23T07:54:50.718Z,99.60
2019-02-23T07:59:58.042Z,99.60
2019-02-23T08:05:05.384Z,99.60
2019-02-23T08:10:11.621Z,99.60
2019-02-23T08:15:17.924Z,99.60
2019-02-23T08:20:24.351Z,99.60
2019-02-23T08:25:30.824Z,99.60
2019-02-23T08:30:39.019Z,99.60
2019-02-23T08:35:45.848Z,99.60
2019-02-23T08:40:51.548Z,99.60
2019-02-23T08:45:57.597Z,99.60
2019-02-23T08:51:03.794Z,99.60
2019-02-23T08:56:10.051Z,99.60
2019-02-23T09:01:17.180Z,99.60
2019-02-23T09:06:23.390Z,99.60
2019-02-23T09:11:29.724Z,99.60
2019-02-23T09:16:37.027Z,99.60
2019-02-23T09:21:44.931Z,99.60
2019-02-23T09:26:52.002Z,99.60
2019-02-23T09:31:59.236Z,99.60
2019-02-23T09:37:05.057Z,99.60
2019-02-23T09:42:11.317Z,99.60
2019-02-23T09:47:17.429Z,99.60
2019-02-23T09:52:23.465Z,99.60
2019-02-23T09:57:29.647Z,99.60
2019-02-23T10:02:36.048Z,99.60
2019-02-23T10:07:42.707Z,98.90
2019-02-23T10:12:49.921Z,98.60
2019-02-23T10:17:56.567Z,98.40
2019-02-23T10:23:04.403Z,97.40
2019-02-23T10:28:11.507Z,96.00
2019-02-23T10:33:18.691Z,94.50
2019-02-23T10:38:25.210Z,94.20
2019-02-23T10:43:33.465Z,92.60
2019-02-23T10:48:41.286Z,91.50
2019-02-23T10:53:50.590Z,91.20
2019-02-23T10:58:59.171Z,87.10
2019-02-23T11:04:05.536Z,82.10
2019-02-23T11:09:36.191Z,78.60
2019-02-23T11:14:45.248Z,75.90
2019-02-23T11:19:52.285Z,73.30
2019-02-23T11:25:01.662Z,70.70
2019-02-23T11:30:11.104Z,69.30
2019-02-23T11:35:18.712Z,69.70
2019-02-23T11:40:25.326Z,69.30
2019-02-23T11:45:32.176Z,66.60
2019-02-23T11:50:38.669Z,65.00
2019-02-23T11:55:45.028Z,64.20
2019-02-23T12:00:51.948Z,64.50
2019-02-23T12:05:58.444Z,63.60
2019-02-23T12:11:04.383Z,62.70
2019-02-23T12:16:10.772Z,62.10
2019-02-23T12:21:17.829Z,60.40
2019-02-23T12:26:25.754Z,60.30
2019-02-23T12:31:32.147Z,59.30
2019-02-23T12:36:39.623Z,59.30
2019-02-23T12:41:45.992Z,59.20
2019-02-23T12:46:52.051Z,58.30
2019-02-23T12:51:58.532Z,58.60
2019-02-23T12:57:04.503Z,59.50
2019-02-23T13:02:10.413Z,60.30
2019-02-23T13:07:16.543Z,60.90
2019-02-23T13:13:15.554Z,60.40
2019-02-23T13:19:04.827Z,62.90
2019-02-23T13:24:50.021Z,64.90
2019-02-23T13:30:20.496Z,65.00
2019-02-23T13:36:25.677Z,65.60
2019-02-23T13:42:05.691Z,66.60
2019-02-23T13:47:38.673Z,67.30
2019-02-23T13:53:24.504Z,67.50
2019-02-23T13:58:39.074Z,66.30
2019-02-23T14:04:07.807Z,66.40
2019-02-23T14:10:08.225Z,66.50
2019-02-23T14:15:45.044Z,65.70
2019-02-23T14:21:36.620Z,66.00
2019-02-23T14:27:40.010Z,65.90
2019-02-23T14:33:33.641Z,65.90
2019-02-23T14:39:26.158Z,66.20
2019-02-23T14:45:09.538Z,66.30
2019-02-23T14:50:32.413Z,65.90
2019-02-23T14:55:54.363Z,65.60
2019-02-23T15:01:59.864Z,64.90
2019-02-23T15:07:59.947Z,65.10
2019-02-23T15:13:52.851Z,65.40
2019-02-23T15:19:48.130Z,65.80
2019-02-23T15:25:31.057Z,65.10
2019-02-23T15:31:31.881Z,65.30
2019-02-23T15:37:12.207Z,65.70
2019-02-23T15:43:01.864Z,66.70
2019-02-23T15:48:41.827Z,66.80
2019-02-23T15:53:48.553Z,67.30
2019-02-23T15:58:55.818Z,67.10
2019-02-23T16:04:03.492Z,67.20
2019-02-23T16:09:12.229Z,67.80
2019-02-23T16:14:19.290Z,68.60
2019-02-23T16:19:27.216Z,68.90
2019-02-23T16:24:34.493Z,69.20
2019-02-23T16:29:41.844Z,70.20
2019-02-23T16:34:49.385Z,70.60
2019-02-23T16:39:55.469Z,71.30
2019-02-23T16:45:02.782Z,71.80
2019-02-23T16:50:10.488Z,72.70
2019-02-23T16:55:17.757Z,73.60
2019-02-23T17:00:24.314Z,73.40
2019-02-23T17:05:31.778Z,73.70
2019-02-23T17:10:39.230Z,74.90
2019-02-23T17:15:45.543Z,74.50
2019-02-23T17:20:54.459Z,74.20
2019-02-23T17:26:04.928Z,74.50
2019-02-23T17:31:09.176Z,74.80
2019-02-23T17:36:15.311Z,75.00
2019-02-23T17:41:23.286Z,75.50
2019-02-23T17:46:30.794Z,76.00
2019-02-23T17:51:37.486Z,76.50
2019-02-23T17:56:52.921Z,76.90
2019-02-23T18:02:00.485Z,77.00
2019-02-23T18:07:06.768Z,77.30
2019-02-23T18:12:14.287Z,78.00
2019-02-23T18:17:21.982Z,78.30
2019-02-23T18:22:28.884Z,78.70
2019-02-23T18:27:35.192Z,79.30
2019-02-23T18:32:41.360Z,79.70
2019-02-23T18:37:47.831Z,79.90
2019-02-23T18:42:58.238Z,79.80
2019-02-23T18:48:08.252Z,80.30
2019-02-23T18:53:18.801Z,80.80
2019-02-23T18:58:26.791Z,80.80
2019-02-23T19:03:33.272Z,80.80
2019-02-23T19:08:43.364Z,81.10
2019-02-23T19:13:51.001Z,80.70
2019-02-23T19:18:58.385Z,81.20
2019-02-23T19:24:04.732Z,80.70
2019-02-23T19:29:11.557Z,81.30
2019-02-23T19:34:18.981Z,81.00
2019-02-23T19:39:26.374Z,81.50
2019-02-23T19:44:34.532Z,81.30
2019-02-23T19:49:43.807Z,81.00
2019-02-23T19:54:50.285Z,81.40
2019-02-23T19:59:58.030Z,81.10
2019-02-23T20:05:04.521Z,80.90
2019-02-23T20:10:11.418Z,81.50
2019-02-23T20:15:18.280Z,81.90
2019-02-23T20:20:24.671Z,81.60
2019-02-23T20:25:31.180Z,81.20
2019-02-23T20:30:38.834Z,80.90
2019-02-23T20:35:46.378Z,81.40
2019-02-23T20:40:54.591Z,81.50
2019-02-23T20:46:01.343Z,81.80
2019-02-23T20:51:08.031Z,82.30
2019-02-23T20:56:15.251Z,82.30
2019-02-23T21:01:23.001Z,82.20
2019-02-23T21:06:30.851Z,82.20
2019-02-23T21:11:39.199Z,82.60
2019-02-23T21:16:45.490Z,82.50
2019-02-23T21:21:51.739Z,82.30
2019-02-23T21:26:59.942Z,82.10
2019-02-23T21:32:07.360Z,81.90
2019-02-23T21:37:15.005Z,81.40
2019-02-23T21:42:21.163Z,81.20
2019-02-23T21:47:29.008Z,81.00
2019-02-23T21:52:36.705Z,80.70
2019-02-23T21:57:43.580Z,80.80
2019-02-23T22:02:51.495Z,81.20
2019-02-23T22:07:59.390Z,81.20
2019-02-23T22:13:06.989Z,80.90
2019-02-23T22:18:13.408Z,81.30
2019-02-23T22:23:20.708Z,81.30
2019-02-23T22:28:29.273Z,82.00
2019-02-23T22:33:37.559Z,82.20
2019-02-23T22:38:45.289Z,82.30
2019-02-23T22:43:51.941Z,82.10
2019-02-23T22:48:57.921Z,82.40
2019-02-23T22:54:06.657Z,82.70
2019-02-23T22:59:14.905Z,82.60
2019-02-23T23:04:22.734Z,82.80
2019-02-23T23:09:29.154Z,82.90
2019-02-23T23:14:38.149Z,82.90
2019-02-23T23:19:44.460Z,82.90
2019-02-23T23:24:50.575Z,82.70
2019-02-23T23:29:56.837Z,83.10
2019-02-23T23:35:03.001Z,83.00
2019-02-23T23:40:10.238Z,83.20
2019-02-23T23:45:16.280Z,82.90
2019-02-23T23:50:22.569Z,83.10
2019-02-23T23:55:29.082Z,83.50
